Time;durP1;ratioP1;P1;durP2;ratioP2;P2;SDS_P1;SDS_P2;PMS_P1;PMS_P2;Temp;Humidity;BMP_temperature;BMP_pressure;BME280_temperature;BME280_humidity;BME280_pressure;Samples;Min_cycle;Max_cycle;Signal;HPM_P1;HPM_P2
2023/10/17 00:00:45;;;;;;;38.00;26.77;;;;;;;4.05;nan;101595.09;10354809;28;20129;-77
2023/10/17 00:05:45;;;;;;;38.05;26.50;;;;;;;3.91;nan;101576.69;10354913;28;20494;-78
2023/10/17 00:10:46;;;;;;;46.13;26.85;;;;;;;3.85;nan;101570.06;10357552;28;20046;-77
2023/10/17 00:15:47;;;;;;;44.45;30.17;;;;;;;3.81;nan;101576.69;10351342;28;20033;-77
2023/10/17 00:20:50;;;;;;;45.72;26.70;;;;;;;3.73;nan;101576.00;10374217;28;20053;-77
2023/10/17 00:25:52;;;;;;;36.08;25.95;;;;;;;3.56;nan;101571.03;10351999;28;20042;-77
2023/10/17 00:30:54;;;;;;;43.33;26.77;;;;;;;3.50;nan;101571.44;10345920;28;20547;-76
2023/10/17 00:35:54;;;;;;;38.38;27.23;;;;;;;3.42;nan;101567.25;10324670;28;20045;-76
2023/10/17 00:40:56;;;;;;;40.83;28.70;;;;;;;3.41;nan;101568.91;10324555;28;20068;-76
2023/10/17 00:45:57;;;;;;;41.78;27.80;;;;;;;3.48;nan;101568.69;10304978;28;20042;-76
2023/10/17 00:51:19;;;;;;;41.72;28.73;;;;;;;3.52;nan;101555.25;10319970;28;20097;-76
2023/10/17 00:56:18;;;;;;;44.85;26.98;;;;;;;3.52;nan;101549.16;10306970;28;21983;-77
2023/10/17 01:01:23;;;;;;;40.13;29.27;;;;;;;3.58;nan;101543.59;10303332;28;20050;-77
2023/10/17 01:11:27;;;;;;;48.85;28.65;;;;;;;3.76;nan;101540.00;10320765;28;20203;-76
2023/10/17 01:16:31;;;;;;;43.28;30.20;;;;;;;3.73;nan;101544.03;10336884;28;20137;-76
2023/10/17 01:21:32;;;;;;;53.03;34.63;;;;;;;3.71;nan;101541.31;10301575;28;20046;-77
2023/10/17 01:26:37;;;;;;;47.40;31.25;;;;;;;3.70;nan;101554.13;10307615;28;20471;-76
2023/10/17 01:31:44;;;;;;;52.25;31.88;;;;;;;3.73;nan;101546.63;10308363;28;20050;-76
2023/10/17 01:36:45;;;;;;;47.67;30.25;;;;;;;3.71;nan;101556.84;10307500;28;20064;-76
2023/10/17 01:41:48;;;;;;;48.20;33.30;;;;;;;3.69;nan;101552.31;10289623;28;20056;-75
2023/10/17 01:46:49;;;;;;;51.63;33.40;;;;;;;3.73;nan;101560.47;10322794;28;20486;-77
2023/10/17 01:51:50;;;;;;;49.40;34.93;;;;;;;3.73;nan;101560.47;10302133;28;20041;-77
2023/10/17 01:56:51;;;;;;;50.17;34.03;;;;;;;3.64;nan;101554.50;10314312;28;20083;-77
2023/10/17 02:01:56;;;;;;;47.33;32.10;;;;;;;3.64;nan;101537.28;10315066;28;20517;-76
2023/10/17 02:06:58;;;;;;;55.90;34.28;;;;;;;3.73;nan;101531.09;10313642;28;20042;-76
2023/10/17 02:12:00;;;;;;;57.20;35.23;;;;;;;3.75;nan;101519.19;10300166;28;20564;-76
2023/10/17 02:17:00;;;;;;;;;;;;;;;3.63;nan;101524.19;10326781;28;20149;-76
2023/10/17 02:22:01;;;;;;;62.13;36.97;;;;;;;3.65;nan;101507.13;10330001;28;19933;-76
2023/10/17 02:27:08;;;;;;;49.78;32.75;;;;;;;3.69;nan;101493.66;10342157;28;20041;-77
2023/10/17 02:32:12;;;;;;;47.08;28.98;;;;;;;3.62;nan;101486.13;10341513;28;20046;-76
2023/10/17 02:37:16;;;;;;;50.60;33.35;;;;;;;3.56;nan;101495.97;10339155;28;20057;-76
2023/10/17 02:42:17;;;;;;;45.28;31.25;;;;;;;3.51;nan;101487.81;10324724;28;20478;-76
2023/10/17 02:47:20;;;;;;;49.45;32.95;;;;;;;3.56;nan;101494.31;10327756;28;20046;-76
2023/10/17 02:52:21;;;;;;;59.72;34.17;;;;;;;3.66;nan;101491.72;10309791;28;20046;-76
2023/10/17 02:57:24;;;;;;;57.67;35.85;;;;;;;3.66;nan;101478.78;10312914;28;20052;-77
2023/10/17 03:02:36;;;;;;;50.17;34.05;;;;;;;3.63;nan;101483.69;10303501;28;20056;-76
2023/10/17 03:07:37;;;;;;;57.13;37.28;;;;;;;3.56;nan;101498.56;10313939;28;20042;-76
2023/10/17 03:12:50;;;;;;;54.75;33.33;;;;;;;3.46;nan;101491.69;10309527;28;21982;-76
2023/10/17 03:18:00;;;;;;;;;;;;;;;3.43;nan;101483.66;10314119;28;20129;-76
2023/10/17 03:23:00;;;;;;;42.30;30.40;;;;;;;3.49;nan;101487.69;10310599;28;19965;-76
2023/10/17 03:28:01;;;;;;;54.63;36.42;;;;;;;3.43;nan;101473.31;10326272;28;20058;-76
2023/10/17 03:33:08;;;;;;;63.53;36.33;;;;;;;3.44;nan;101486.38;10330857;28;20049;-76
2023/10/17 03:38:10;;;;;;;61.35;34.00;;;;;;;3.44;nan;101485.47;10294814;28;20054;-76
2023/10/17 03:43:14;;;;;;;59.03;37.33;;;;;;;3.48;nan;101498.81;10293674;28;20046;-76
2023/10/17 03:48:15;;;;;;;57.53;37.38;;;;;;;3.41;nan;101504.22;10310741;28;21553;-76
2023/10/17 03:53:19;;;;;;;60.63;38.22;;;;;;;3.36;nan;101503.84;10311524;28;20044;-76
2023/10/17 03:58:29;;;;;;;70.82;40.80;;;;;;;3.37;nan;101497.91;10323514;28;20042;-76
2023/10/17 04:03:30;;;;;;;58.47;33.55;;;;;;;3.44;nan;101493.25;10310670;28;20053;-76
2023/10/17 04:08:31;;;;;;;57.67;33.92;;;;;;;3.44;nan;101494.13;10310264;28;20050;-76
2023/10/17 04:13:35;;;;;;;59.58;38.70;;;;;;;3.55;nan;101487.31;10308828;28;20050;-77
2023/10/17 04:18:38;;;;;;;74.35;39.05;;;;;;;3.58;nan;101484.06;10311319;28;20108;-77
2023/10/17 04:23:38;;;;;;;60.08;37.65;;;;;;;3.60;nan;101482.53;10321238;28;20120;-76
2023/10/17 04:28:41;;;;;;;73.97;39.25;;;;;;;3.58;nan;101495.34;10308012;28;20053;-76
2023/10/17 04:33:41;;;;;;;;;;;;;;;3.62;nan;101494.84;10309192;28;20046;-76
2023/10/17 04:38:46;;;;;;;57.83;38.33;;;;;;;3.69;nan;101490.19;10310300;28;20896;-76
2023/10/17 04:43:56;;;;;;;60.55;38.67;;;;;;;3.66;nan;101480.44;10310152;28;20509;-76
2023/10/17 04:49:17;;;;;;;72.50;39.95;;;;;;;3.79;nan;101479.81;10304461;28;20060;-76
2023/10/17 04:54:24;;;;;;;68.15;38.67;;;;;;;3.80;nan;101482.53;10294198;28;20050;-76
2023/10/17 06:19:21;;;;;;;56.72;31.80;;;;;;;3.89;nan;101463.38;10364075;28;20037;-76
2023/10/17 06:26:02;;;;;;;50.35;30.77;;;;;;;3.91;nan;101483.47;10359485;28;20121;-76
2023/10/17 06:34:48;;;;;;;53.35;30.85;;;;;;;4.25;nan;101493.13;10358093;28;20073;-76
2023/10/17 06:39:49;;;;;;;60.28;31.92;;;;;;;4.29;nan;101497.78;10355177;28;20073;-77
2023/10/17 06:44:53;;;;;;;54.45;33.47;;;;;;;4.35;nan;101498.28;10346077;28;20045;-77
2023/10/17 06:55:07;;;;;;;50.05;31.90;;;;;;;4.55;nan;101486.06;10343222;28;20133;-77
2023/10/17 07:00:25;;;;;;;44.17;31.20;;;;;;;4.72;nan;101486.53;10347122;28;20048;-77
2023/10/17 07:05:27;;;;;;;46.35;33.35;;;;;;;4.87;nan;101486.88;10313806;28;20042;-78
2023/10/17 07:15:32;;;;;;;47.78;31.48;;;;;;;5.07;nan;101479.03;10342897;28;20056;-77
2023/10/17 07:25:56;;;;;;;44.33;27.50;;;;;;;5.25;nan;101473.47;10363154;28;20041;-77
2023/10/17 07:30:58;;;;;;;39.53;26.05;;;;;;;5.32;nan;101460.19;10331303;28;20401;-77
2023/10/17 07:35:58;;;;;;;37.35;27.75;;;;;;;5.47;nan;101463.06;10356238;28;20092;-76
2023/10/17 07:41:12;;;;;;;34.95;21.60;;;;;;;5.58;nan;101457.00;10342909;28;20548;-77
2023/10/17 07:46:25;;;;;;;33.15;21.90;;;;;;;5.64;nan;101456.59;10357900;28;20049;-77
2023/10/17 07:51:26;;;;;;;35.28;18.77;;;;;;;5.73;nan;101452.13;10350735;28;20050;-77
2023/10/17 07:56:26;;;;;;;33.50;20.38;;;;;;;5.74;nan;101453.00;10311906;28;20117;-76
2023/10/17 08:01:41;;;;;;;31.10;19.17;;;;;;;5.93;nan;101454.41;10360400;28;20501;-77
2023/10/17 08:06:42;;;;;;;22.80;15.38;;;;;;;6.11;nan;101452.34;10321559;28;20076;-77
2023/10/17 08:11:43;;;;;;;28.15;15.30;;;;;;;6.40;nan;101448.41;10330997;28;20046;-77
2023/10/17 08:16:43;;;;;;;18.88;13.20;;;;;;;6.56;nan;101451.34;10308239;28;20128;-76
2023/10/17 08:22:09;;;;;;;22.00;12.82;;;;;;;6.68;nan;101442.63;10373923;28;20698;-76
2023/10/17 08:27:13;;;;;;;21.48;13.35;;;;;;;7.03;nan;101446.84;10345348;28;20100;-77
2023/10/17 08:37:27;;;;;;;23.45;13.13;;;;;;;6.94;nan;101434.06;10354175;28;20038;-76
2023/10/17 08:42:30;;;;;;;13.43;10.57;;;;;;;6.84;nan;101431.59;10346181;28;20046;-77
2023/10/17 08:47:32;;;;;;;15.70;11.45;;;;;;;6.58;nan;101428.03;10359115;28;20084;-77
2023/10/17 08:52:35;;;;;;;18.20;10.87;;;;;;;6.38;nan;101427.47;10353626;28;20046;-76
2023/10/17 08:57:37;;;;;;;19.60;10.27;;;;;;;6.65;nan;101425.06;10357308;28;20508;-76
2023/10/17 09:02:48;;;;;;;18.67;11.82;;;;;;;7.30;nan;101431.38;10345463;28;20053;-76
2023/10/17 09:07:55;;;;;;;13.70;7.93;;;;;;;7.77;nan;101410.31;10332276;28;20048;-77
2023/10/17 09:18:39;;;;;;;13.00;7.87;;;;;;;8.29;nan;101421.47;10342012;28;20077;-77
2023/10/17 09:23:41;;;;;;;12.38;6.15;;;;;;;8.60;nan;101434.88;10359228;28;21024;-78
2023/10/17 09:28:42;;;;;;;10.98;5.50;;;;;;;8.77;nan;101451.59;10356628;28;20117;-77
2023/10/17 09:33:48;;;;;;;9.45;6.40;;;;;;;8.99;nan;101460.81;10357106;28;20490;-76
2023/10/17 09:38:48;;;;;;;9.13;5.47;;;;;;;9.34;nan;101464.72;10385238;28;20041;-77
2023/10/17 09:43:51;;;;;;;8.93;5.38;;;;;;;9.78;nan;101468.28;10374943;28;20117;-76
2023/10/17 09:48:52;;;;;;;12.85;4.72;;;;;;;11.05;nan;101493.03;10349165;28;20038;-76
2023/10/17 09:53:53;;;;;;;6.22;3.60;;;;;;;13.39;nan;101518.84;10372968;28;20042;-76
2023/10/17 09:58:56;;;;;;;12.38;3.60;;;;;;;15.14;nan;101583.47;10299450;28;20039;-76
2023/10/17 10:03:58;;;;;;;8.88;2.80;;;;;;;16.78;nan;101622.97;10316722;28;20445;-77
2023/10/17 10:09:13;;;;;;;5.05;2.72;;;;;;;17.77;nan;101649.97;10372654;28;20041;-76
2023/10/17 10:14:36;;;;;;;4.53;2.03;;;;;;;17.21;nan;101672.03;10364668;28;20052;-76
2023/10/17 10:19:46;;;;;;;4.43;2.15;;;;;;;17.51;nan;101665.06;10367174;28;20128;-77
2023/10/17 10:24:49;;;;;;;4.35;3.03;;;;;;;18.46;nan;101667.03;10364024;28;20057;-78
2023/10/17 10:29:54;;;;;;;4.18;2.58;;;;;;;19.99;nan;101660.16;10362339;28;20037;-77
2023/10/17 10:34:54;;;;;;;4.78;1.90;;;;;;;20.66;nan;101663.28;10355150;28;20169;-77
2023/10/17 10:40:22;;;;;;;5.60;2.30;;;;;;;19.15;nan;101668.84;10363656;28;20103;-78
2023/10/17 10:45:26;;;;;;;3.88;2.40;;;;;;;19.07;nan;101656.28;10346722;28;20405;-77
2023/10/17 10:50:31;;;;;;;7.15;3.78;;;;;;;19.34;nan;101648.97;10378297;28;20073;-77
2023/10/17 10:55:31;;;;;;;3.70;1.80;;;;;;;19.93;nan;101631.72;10377963;28;20045;-78
2023/10/17 11:00:32;;;;;;;2.25;1.38;;;;;;;19.86;nan;101621.81;10361198;28;20069;-77
2023/10/17 11:05:33;;;;;;;2.50;1.23;;;;;;;18.70;nan;101628.78;10378063;28;20128;-75
2023/10/17 11:10:34;;;;;;;2.75;1.65;;;;;;;19.78;nan;101626.94;10363316;28;20064;-75
2023/10/17 11:15:35;;;;;;;3.60;1.35;;;;;;;19.06;nan;101620.00;10345063;28;20570;-74
2023/10/17 11:20:40;;;;;;;3.47;1.43;;;;;;;19.17;nan;101611.41;10333414;28;20117;-75
2023/10/17 11:25:45;;;;;;;3.80;1.77;;;;;;;19.28;nan;101603.72;10359343;28;20507;-80
2023/10/17 11:30:48;;;;;;;1.45;1.00;;;;;;;19.40;nan;101588.06;10350985;28;20517;-79
2023/10/17 11:35:51;;;;;;;3.55;2.33;;;;;;;19.64;nan;101595.66;10360684;28;20115;-76
2023/10/17 11:40:54;;;;;;;2.28;1.25;;;;;;;20.16;nan;101599.41;10386154;28;20041;-76
2023/10/17 11:45:56;;;;;;;3.53;1.63;;;;;;;20.46;nan;101590.25;10346041;28;20033;-78
2023/10/17 11:51:28;;;;;;;3.22;1.42;;;;;;;20.29;nan;101565.97;10358393;28;20068;-79
2023/10/17 11:56:35;;;;;;;1.52;0.85;;;;;;;20.60;nan;101561.22;10352865;28;20049;-79
2023/10/17 12:01:36;;;;;;;3.20;1.17;;;;;;;20.07;nan;101562.91;10355628;28;20129;-78
2023/10/17 12:06:40;;;;;;;2.10;0.70;;;;;;;20.35;nan;101559.03;10325494;28;20046;-79
2023/10/17 12:11:40;;;;;;;2.20;1.13;;;;;;;19.97;nan;101547.66;10372120;28;20474;-79
2023/10/17 12:16:43;;;;;;;2.30;1.15;;;;;;;20.75;nan;101545.53;10389157;28;20129;-79
2023/10/17 12:21:48;;;;;;;3.42;1.10;;;;;;;21.53;nan;101542.25;10374993;28;20042;-78
2023/10/17 12:26:52;;;;;;;4.22;1.00;;;;;;;21.26;nan;101533.03;10385342;28;20482;-79
2023/10/17 12:31:55;;;;;;;4.25;1.35;;;;;;;19.87;nan;101536.81;10373735;28;20088;-78
2023/10/17 12:36:55;;;;;;;1.15;1.00;;;;;;;19.95;nan;101514.00;10371038;28;20057;-77
2023/10/17 12:41:56;;;;;;;1.67;0.95;;;;;;;19.07;nan;101517.44;10374542;28;20545;-77
2023/10/17 12:46:56;;;;;;;2.67;0.90;;;;;;;18.92;nan;101510.91;10358725;28;20126;-78
2023/10/17 12:52:00;;;;;;;3.83;1.13;;;;;;;19.31;nan;101500.28;10358997;28;20545;-77
2023/10/17 12:57:00;;;;;;;2.92;0.95;;;;;;;19.77;nan;101495.94;10356073;28;20441;-77
2023/10/17 13:02:01;;;;;;;9.60;2.53;;;;;;;19.79;nan;101494.19;10357848;28;20112;-77
2023/10/17 13:07:01;;;;;;;2.03;1.25;;;;;;;19.63;nan;101478.81;10372451;28;20560;-78
2023/10/17 13:12:02;;;;;;;2.28;1.15;;;;;;;19.65;nan;101483.28;10385789;28;20060;-78
2023/10/17 13:17:03;;;;;;;2.40;1.10;;;;;;;20.00;nan;101474.25;10353305;28;20060;-76
2023/10/17 13:22:08;;;;;;;2.95;1.42;;;;;;;19.93;nan;101467.03;10388877;28;20046;-79
2023/10/17 13:27:09;;;;;;;3.17;1.50;;;;;;;19.26;nan;101463.03;10372070;28;20053;-79
2023/10/17 13:32:09;;;;;;;3.50;1.25;;;;;;;18.69;nan;101441.41;10385798;28;20402;-78
2023/10/17 13:37:11;;;;;;;11.25;2.22;;;;;;;17.51;nan;101443.66;10343224;28;20049;-78
2023/10/17 13:42:13;;;;;;;;;;;;;;;17.52;nan;101439.28;10351777;28;20042;-79
2023/10/17 13:47:13;;;;;;;2.67;1.97;;;;;;;16.65;nan;101440.19;10367578;28;19921;-78
2023/10/17 13:52:17;;;;;;;2.22;1.13;;;;;;;16.98;nan;101431.56;10361395;28;20125;-78
2023/10/17 13:57:17;;;;;;;4.68;1.42;;;;;;;17.31;nan;101428.13;10379010;28;20045;-78
2023/10/17 14:02:18;;;;;;;6.13;1.13;;;;;;;17.87;nan;101429.63;10367896;28;20080;-79
2023/10/17 14:07:18;;;;;;;3.33;1.38;;;;;;;17.63;nan;101423.69;10365138;28;20034;-81
2023/10/17 14:12:19;;;;;;;2.17;1.25;;;;;;;17.19;nan;101427.75;10365754;28;20375;-80
2023/10/17 14:17:20;;;;;;;2.83;1.80;;;;;;;16.61;nan;101427.72;10401908;28;20129;-81
2023/10/17 14:22:33;;;;;;;1.33;1.20;;;;;;;16.60;nan;101418.00;10379023;28;20034;-80
2023/10/17 14:27:33;;;;;;;3.47;1.60;;;;;;;16.09;nan;101413.72;10347735;28;20042;-78
2023/10/17 14:32:35;;;;;;;2.20;1.02;;;;;;;15.85;nan;101412.91;10350888;28;20128;-78
2023/10/17 14:37:35;;;;;;;1.75;1.27;;;;;;;15.33;nan;101393.50;10362819;28;20038;-79
2023/10/17 14:42:36;;;;;;;4.82;1.65;;;;;;;16.02;nan;101387.97;10360863;28;20196;-78
2023/10/17 14:47:37;;;;;;;3.15;1.50;;;;;;;16.49;nan;101375.41;10347052;28;20069;-80
2023/10/17 14:52:38;;;;;;;3.33;1.45;;;;;;;16.92;nan;101373.16;10361026;28;20045;-80
2023/10/17 14:57:38;;;;;;;2.72;1.52;;;;;;;16.97;nan;101366.31;10378597;28;20088;-80
2023/10/17 15:02:47;;;;;;;3.65;1.60;;;;;;;15.34;nan;101366.28;10352180;28;20124;-80
2023/10/17 15:07:48;;;;;;;3.22;1.58;;;;;;;13.32;nan;101344.16;10305364;28;20038;-80
2023/10/17 15:12:50;;;;;;;2.75;1.08;;;;;;;12.46;nan;101326.25;10336889;28;20073;-81
2023/10/17 15:17:50;;;;;;;;;;;;;;;12.06;nan;101309.53;10337505;28;20399;-80
2023/10/17 15:22:51;;;;;;;5.10;1.77;;;;;;;11.87;nan;101305.97;10361641;28;19929;-80
2023/10/17 15:27:54;;;;;;;4.97;1.80;;;;;;;11.27;nan;101310.78;10344833;28;20265;-80
2023/10/17 15:32:55;;;;;;;3.13;1.00;;;;;;;11.02;nan;101301.63;10343816;28;20081;-81
2023/10/17 15:37:56;;;;;;;8.23;1.77;;;;;;;10.86;nan;101292.97;10361286;28;20192;-80
2023/10/17 15:42:56;;;;;;;5.13;1.40;;;;;;;10.46;nan;101272.50;10359908;28;20077;-80
2023/10/17 15:47:57;;;;;;;3.67;1.30;;;;;;;10.04;nan;101258.81;10359665;28;20133;-80
2023/10/17 15:52:57;;;;;;;3.80;1.38;;;;;;;9.58;nan;101249.25;10375482;28;20116;-80
2023/10/17 15:57:58;;;;;;;3.83;1.38;;;;;;;9.21;nan;101241.06;10359959;28;20393;-80
2023/10/17 16:02:58;;;;;;;2.75;1.20;;;;;;;8.75;nan;101226.16;10359712;28;20068;-79
2023/10/17 16:07:59;;;;;;;4.20;1.30;;;;;;;8.41;nan;101217.94;10359614;28;20116;-80
2023/10/17 16:13:01;;;;;;;4.43;2.08;;;;;;;7.97;nan;101209.13;10342048;28;20546;-79
2023/10/17 16:18:02;;;;;;;3.58;2.17;;;;;;;7.68;nan;101198.63;10356265;28;20046;-79
2023/10/17 16:23:06;;;;;;;3.85;2.17;;;;;;;7.49;nan;101179.22;10365115;28;20038;-80
2023/10/17 16:28:07;;;;;;;4.07;1.75;;;;;;;7.19;nan;101175.47;10355368;28;20049;-80
2023/10/17 16:33:08;;;;;;;3.13;1.88;;;;;;;6.94;nan;101159.94;10335284;28;20096;-79
2023/10/17 16:38:14;;;;;;;2.45;1.80;;;;;;;6.49;nan;101160.44;10345807;28;20038;-79
2023/10/17 16:43:14;;;;;;;3.78;1.60;;;;;;;6.27;nan;101160.63;10357445;28;20061;-80
2023/10/17 16:48:16;;;;;;;3.47;1.95;;;;;;;6.11;nan;101177.75;10352257;28;20058;-79
2023/10/17 16:53:16;;;;;;;4.03;2.40;;;;;;;5.93;nan;101184.19;10373862;28;20560;-80
2023/10/17 16:58:17;;;;;;;5.05;2.72;;;;;;;5.74;nan;101182.88;10372074;28;20133;-80
2023/10/17 17:03:20;;;;;;;4.43;2.60;;;;;;;5.65;nan;101184.81;10341851;28;20429;-79
2023/10/17 17:08:20;;;;;;;10.88;3.83;;;;;;;5.57;nan;101192.06;10342318;28;20042;-79
2023/10/17 17:13:21;;;;;;;10.23;5.32;;;;;;;5.53;nan;101195.22;10374186;28;20070;-80
2023/10/17 17:18:21;;;;;;;7.75;4.80;;;;;;;5.30;nan;101191.81;10351500;28;20054;-79
2023/10/17 17:23:22;;;;;;;9.50;5.32;;;;;;;5.34;nan;101193.88;10341135;28;20044;-79
2023/10/17 17:28:22;;;;;;;12.13;9.18;;;;;;;5.24;nan;101187.06;10348727;28;20053;-79
2023/10/17 17:33:22;;;;;;;12.93;11.18;;;;;;;5.11;nan;101181.75;10395533;28;20038;-81
2023/10/17 17:38:23;;;;;;;11.85;7.22;;;;;;;4.95;nan;101175.41;10364472;28;20132;-80
2023/10/17 17:43:26;;;;;;;9.75;6.82;;;;;;;4.89;nan;101187.03;10364980;28;20143;-79
2023/10/17 17:48:26;;;;;;;9.15;5.53;;;;;;;5.02;nan;101187.16;10359216;28;20049;-80
2023/10/17 17:53:27;;;;;;;8.93;5.43;;;;;;;5.20;nan;101191.94;10352384;28;20507;-79
2023/10/17 17:58:28;;;;;;;11.60;8.30;;;;;;;5.25;nan;101196.66;10352204;28;20490;-80
2023/10/17 18:03:29;;;;;;;12.95;8.60;;;;;;;5.20;nan;101187.63;10341655;28;20133;-80
2023/10/17 18:08:29;;;;;;;12.18;6.95;;;;;;;5.36;nan;101181.91;10355611;28;20045;-79
2023/10/17 18:13:32;;;;;;;17.55;10.82;;;;;;;5.45;nan;101184.25;10372065;28;20595;-80
2023/10/17 18:18:35;;;;;;;13.68;6.45;;;;;;;5.48;nan;101191.38;10360869;28;20117;-80
2023/10/17 18:23:37;;;;;;;18.67;10.00;;;;;;;5.28;nan;101183.91;10344761;28;20065;-80
2023/10/17 18:28:37;;;;;;;;;;;;;;;5.36;nan;101186.16;10343235;28;20053;-80
2023/10/17 18:33:40;;;;;;;13.98;8.75;;;;;;;5.53;nan;101184.84;10364560;28;19928;-80
2023/10/17 18:38:41;;;;;;;12.07;8.77;;;;;;;5.39;nan;101170.81;10377187;28;20070;-80
2023/10/17 18:43:42;;;;;;;14.98;9.52;;;;;;;5.51;nan;101165.63;10359772;28;20125;-81
2023/10/17 18:48:42;;;;;;;29.08;15.35;;;;;;;5.31;nan;101156.38;10357058;28;20085;-79
2023/10/17 18:53:44;;;;;;;15.35;10.02;;;;;;;5.28;nan;101152.78;10339175;28;20079;-79
2023/10/17 18:58:45;;;;;;;15.85;10.48;;;;;;;5.28;nan;101144.09;10359588;28;20406;-80
2023/10/17 19:03:46;;;;;;;18.52;10.32;;;;;;;5.32;nan;101143.53;10338352;28;20065;-79
2023/10/17 19:08:46;;;;;;;13.63;9.32;;;;;;;5.32;nan;101137.41;10356790;28;20490;-80
2023/10/17 19:13:47;;;;;;;16.85;10.02;;;;;;;5.34;nan;101134.16;10337688;28;20050;-79
2023/10/17 19:18:48;;;;;;;15.38;10.30;;;;;;;5.38;nan;101123.22;10371591;28;20059;-80
2023/10/17 19:23:48;;;;;;;14.15;8.63;;;;;;;5.46;nan;101131.53;10356812;28;20514;-80
2023/10/17 19:28:50;;;;;;;9.60;5.68;;;;;;;5.39;nan;101129.28;10373023;28;20068;-80
2023/10/17 19:33:53;;;;;;;12.80;7.53;;;;;;;5.23;nan;101117.78;10350003;28;20045;-80
2023/10/17 19:38:54;;;;;;;18.42;9.60;;;;;;;5.24;nan;101111.81;10353711;28;20042;-80
2023/10/17 19:43:55;;;;;;;14.57;10.25;;;;;;;5.27;nan;101116.34;10345337;28;20042;-80
2023/10/17 19:48:55;;;;;;;14.35;8.48;;;;;;;5.29;nan;101105.25;10336498;28;20056;-80
2023/10/17 19:53:56;;;;;;;14.18;8.80;;;;;;;5.22;nan;101113.38;10357087;28;20042;-80
2023/10/17 19:58:56;;;;;;;11.85;8.32;;;;;;;5.13;nan;101104.94;10336505;28;20073;-80
2023/10/17 20:03:57;;;;;;;14.82;9.80;;;;;;;5.19;nan;101095.00;10344691;28;20073;-81
2023/10/17 20:08:57;;;;;;;11.23;7.45;;;;;;;5.04;nan;101083.50;10359465;28;20137;-81
2023/10/17 20:14:00;;;;;;;16.00;8.73;;;;;;;4.87;nan;101085.75;10342359;28;21611;-80
2023/10/17 20:19:00;;;;;;;11.32;9.07;;;;;;;4.77;nan;101083.25;10354941;28;20072;-80
2023/10/17 20:24:01;;;;;;;17.98;8.90;;;;;;;4.80;nan;101074.03;10339320;28;20125;-81
2023/10/17 20:29:01;;;;;;;13.70;8.82;;;;;;;4.80;nan;101086.09;10387135;28;20117;-81
2023/10/17 20:34:02;;;;;;;14.82;8.00;;;;;;;4.75;nan;101082.25;10372487;28;20065;-81
2023/10/17 20:39:03;;;;;;;13.10;8.75;;;;;;;4.61;nan;101079.53;10349742;28;20517;-79
2023/10/17 20:44:05;;;;;;;8.95;7.22;;;;;;;4.42;nan;101064.28;10331975;28;20069;-81
2023/10/17 20:49:06;;;;;;;14.75;9.48;;;;;;;4.36;nan;101058.66;10373140;28;20042;-80
2023/10/17 20:54:06;;;;;;;14.75;8.45;;;;;;;4.41;nan;101054.72;10373393;28;20069;-81
2023/10/17 20:59:08;;;;;;;16.73;7.88;;;;;;;4.37;nan;101056.16;10362948;28;20222;-80
2023/10/17 21:04:09;;;;;;;15.52;9.10;;;;;;;4.24;nan;101045.66;10358454;28;20061;-79
2023/10/17 21:09:09;;;;;;;16.30;8.95;;;;;;;4.19;nan;101039.22;10356258;28;20038;-81
2023/10/17 21:14:11;;;;;;;13.45;9.57;;;;;;;4.18;nan;101045.19;10341298;28;20042;-81
2023/10/17 21:19:13;;;;;;;;;;;;;;;4.32;nan;101039.34;10341968;28;20038;-81
2023/10/17 21:24:14;;;;;;;11.37;7.40;;;;;;;4.43;nan;101036.66;10388273;28;19925;-82
2023/10/17 21:29:15;;;;;;;9.85;6.82;;;;;;;4.49;nan;101025.09;10373273;28;20042;-82
2023/10/17 21:34:15;;;;;;;10.63;6.93;;;;;;;4.47;nan;101013.69;10388094;28;20042;-81
2023/10/17 21:39:16;;;;;;;12.48;7.38;;;;;;;4.49;nan;101003.44;10332246;28;20482;-81
2023/10/17 21:44:17;;;;;;;13.05;7.13;;;;;;;4.50;nan;101003.56;10347173;28;20046;-82
2023/10/17 21:49:17;;;;;;;11.25;7.70;;;;;;;4.45;nan;100994.53;10373251;28;20054;-81
2023/10/17 21:54:18;;;;;;;11.68;7.13;;;;;;;4.58;nan;100983.38;10356765;28;20048;-81
2023/10/17 21:59:18;;;;;;;9.52;7.25;;;;;;;4.67;nan;100977.97;10341918;28;20500;-81
2023/10/17 22:04:19;;;;;;;9.95;5.40;;;;;;;4.60;nan;100971.44;10355923;28;20049;-81
2023/10/17 22:09:19;;;;;;;11.55;6.72;;;;;;;4.83;nan;100977.38;10358421;28;20549;-82
2023/10/17 22:14:21;;;;;;;9.48;6.85;;;;;;;4.78;nan;100968.38;10362631;28;20237;-81
2023/10/17 22:19:21;;;;;;;10.32;5.32;;;;;;;4.67;nan;100960.72;10364530;28;20030;-81
2023/10/17 22:24:22;;;;;;;11.57;6.63;;;;;;;4.69;nan;100953.94;10380730;28;20034;-81
2023/10/17 22:29:23;;;;;;;11.98;7.07;;;;;;;4.53;nan;100953.63;10359495;28;20586;-82
2023/10/17 22:34:23;;;;;;;10.82;7.68;;;;;;;4.33;nan;100944.41;10363144;28;20034;-81
2023/10/17 22:39:23;;;;;;;9.65;5.57;;;;;;;4.38;nan;100954.28;10362371;28;20041;-81
2023/10/17 22:44:24;;;;;;;9.30;6.50;;;;;;;4.28;nan;100957.00;10380167;28;20072;-81
2023/10/17 22:49:26;;;;;;;8.98;6.13;;;;;;;4.33;nan;100946.97;10360733;28;20068;-81
2023/10/17 22:54:28;;;;;;;10.48;6.80;;;;;;;4.13;nan;100949.00;10360905;28;20041;-81
2023/10/17 22:59:31;;;;;;;12.47;6.37;;;;;;;4.24;nan;100944.59;10362481;28;20042;-81
2023/10/17 23:04:32;;;;;;;10.35;6.72;;;;;;;4.28;nan;100935.38;10377370;28;20501;-81
2023/10/17 23:09:32;;;;;;;11.35;7.38;;;;;;;4.16;nan;100920.72;10362499;28;20133;-81
2023/10/17 23:14:33;;;;;;;15.73;9.55;;;;;;;4.25;nan;100904.94;10361898;28;20044;-81
2023/10/17 23:19:36;;;;;;;9.70;7.00;;;;;;;4.23;nan;100903.94;10345883;28;20132;-82
2023/10/17 23:24:36;;;;;;;11.82;7.95;;;;;;;4.29;nan;100904.38;10379197;28;20391;-81
2023/10/17 23:29:37;;;;;;;18.30;8.07;;;;;;;4.18;nan;100893.25;10382813;28;20140;-81
2023/10/17 23:34:38;;;;;;;11.25;7.55;;;;;;;4.27;nan;100893.00;10361842;28;20045;-82
2023/10/17 23:39:39;;;;;;;16.80;8.95;;;;;;;4.15;nan;100881.75;10358040;28;20390;-81
2023/10/17 23:44:40;;;;;;;14.10;8.00;;;;;;;4.11;nan;100888.41;10363199;28;20124;-80
2023/10/17 23:49:40;;;;;;;12.15;7.10;;;;;;;4.05;nan;100888.81;10359925;28;20124;-82
2023/10/17 23:54:41;;;;;;;12.55;7.68;;;;;;;4.19;nan;100881.19;10344592;28;20050;-82
2023/10/17 23:59:44;;;;;;;12.95;6.72;;;;;;;4.15;nan;100880.06;10359945;28;20439;-81
